sensor_id;sensor_type;location;lat;lon;timestamp;pressure;altitude;pressure_sealevel;temperature;humidity
21824;BME280;11074;48.596;9.238;2023-04-23T00:00:06;97593.88;;;15.28;72.82
21824;BME280;11074;48.596;9.238;2023-04-23T00:02:37;97591.41;;;15.32;73.48
21824;BME280;11074;48.596;9.238;2023-04-23T00:05:05;97587.91;;;15.31;73.27
21824;BME280;11074;48.596;9.238;2023-04-23T00:07:32;97582.94;;;15.25;74.09
21824;BME280;11074;48.596;9.238;2023-04-23T00:10:00;97584.50;;;15.26;73.80
21824;BME280;11074;48.596;9.238;2023-04-23T00:12:28;97583.69;;;15.25;74.20
21824;BME280;11074;48.596;9.238;2023-04-23T00:14:54;97585.41;;;15.21;74.37
21824;BME280;11074;48.596;9.238;2023-04-23T00:17:20;97582.50;;;15.17;73.80
21824;BME280;11074;48.596;9.238;2023-04-23T00:19:46;97587.59;;;15.19;74.17
21824;BME280;11074;48.596;9.238;2023-04-23T00:22:12;97580.09;;;15.16;74.50
21824;BME280;11074;48.596;9.238;2023-04-23T00:24:39;97582.72;;;15.21;74.25
21824;BME280;11074;48.596;9.238;2023-04-23T00:27:05;97587.59;;;15.19;74.54
21824;BME280;11074;48.596;9.238;2023-04-23T00:29:31;97586.47;;;15.20;74.49
21824;BME280;11074;48.596;9.238;2023-04-23T00:31:57;97595.69;;;15.19;74.24
21824;BME280;11074;48.596;9.238;2023-04-23T00:34:22;97595.94;;;15.17;74.67
21824;BME280;11074;48.596;9.238;2023-04-23T00:36:48;97588.78;;;15.13;75.44
21824;BME280;11074;48.596;9.238;2023-04-23T00:39:14;97593.44;;;15.07;75.32
21824;BME280;11074;48.596;9.238;2023-04-23T00:41:40;97590.75;;;15.07;75.36
21824;BME280;11074;48.596;9.238;2023-04-23T00:46:35;97602.91;;;15.05;75.91
21824;BME280;11074;48.596;9.238;2023-04-23T00:49:02;97610.16;;;15.04;75.76
21824;BME280;11074;48.596;9.238;2023-04-23T00:51:29;97607.06;;;14.97;76.09
21824;BME280;11074;48.596;9.238;2023-04-23T00:53:55;97613.25;;;14.98;76.17
21824;BME280;11074;48.596;9.238;2023-04-23T00:56:21;97605.75;;;14.95;76.45
21824;BME280;11074;48.596;9.238;2023-04-23T00:58:49;97604.75;;;14.91;77.88
21824;BME280;11074;48.596;9.238;2023-04-23T01:01:16;97607.16;;;14.92;77.56
21824;BME280;11074;48.596;9.238;2023-04-23T01:03:47;97614.69;;;14.90;77.22
21824;BME280;11074;48.596;9.238;2023-04-23T01:06:15;97617.19;;;14.87;78.08
21824;BME280;11074;48.596;9.238;2023-04-23T01:08:42;97615.66;;;14.81;79.15
21824;BME280;11074;48.596;9.238;2023-04-23T01:11:08;97622.66;;;14.82;79.07
21824;BME280;11074;48.596;9.238;2023-04-23T01:13:34;97624.53;;;14.81;80.17
21824;BME280;11074;48.596;9.238;2023-04-23T01:16:01;97630.19;;;14.80;79.78
21824;BME280;11074;48.596;9.238;2023-04-23T01:18:27;97625.69;;;14.75;79.85
21824;BME280;11074;48.596;9.238;2023-04-23T01:20:54;97628.69;;;14.74;80.19
21824;BME280;11074;48.596;9.238;2023-04-23T01:23:20;97630.09;;;14.71;80.28
21824;BME280;11074;48.596;9.238;2023-04-23T01:25:46;97630.44;;;14.65;81.23
21824;BME280;11074;48.596;9.238;2023-04-23T01:28:14;97640.38;;;14.64;81.91
21824;BME280;11074;48.596;9.238;2023-04-23T01:30:42;97628.84;;;14.64;81.73
21824;BME280;11074;48.596;9.238;2023-04-23T01:33:09;97637.50;;;14.61;82.94
21824;BME280;11074;48.596;9.238;2023-04-23T01:35:36;97641.50;;;14.63;84.10
21824;BME280;11074;48.596;9.238;2023-04-23T01:38:02;97639.88;;;14.62;82.78
21824;BME280;11074;48.596;9.238;2023-04-23T01:40:29;97641.50;;;14.63;82.37
21824;BME280;11074;48.596;9.238;2023-04-23T01:42:56;97636.94;;;14.64;82.22
21824;BME280;11074;48.596;9.238;2023-04-23T01:45:21;97641.50;;;14.63;83.14
21824;BME280;11074;48.596;9.238;2023-04-23T01:47:47;97648.19;;;14.66;83.23
21824;BME280;11074;48.596;9.238;2023-04-23T01:50:14;97646.31;;;14.66;83.45
21824;BME280;11074;48.596;9.238;2023-04-23T01:52:39;97652.19;;;14.68;83.74
21824;BME280;11074;48.596;9.238;2023-04-23T01:55:07;97645.50;;;14.66;85.47
21824;BME280;11074;48.596;9.238;2023-04-23T01:57:34;97648.47;;;14.64;85.01
21824;BME280;11074;48.596;9.238;2023-04-23T02:00:05;97653.34;;;14.62;86.07
21824;BME280;11074;48.596;9.238;2023-04-23T02:02:34;97654.22;;;14.57;85.98
21824;BME280;11074;48.596;9.238;2023-04-23T02:05:01;97659.38;;;14.54;86.22
21824;BME280;11074;48.596;9.238;2023-04-23T02:07:31;97661.25;;;14.53;86.18
21824;BME280;11074;48.596;9.238;2023-04-23T02:09:57;97665.31;;;14.51;86.42
21824;BME280;11074;48.596;9.238;2023-04-23T02:12:24;97661.31;;;14.48;87.11
21824;BME280;11074;48.596;9.238;2023-04-23T02:14:50;97661.91;;;14.45;87.05
21824;BME280;11074;48.596;9.238;2023-04-23T02:17:18;97662.69;;;14.46;87.96
21824;BME280;11074;48.596;9.238;2023-04-23T02:19:44;97669.69;;;14.47;87.91
21824;BME280;11074;48.596;9.238;2023-04-23T02:22:10;97657.06;;;14.47;88.14
21824;BME280;11074;48.596;9.238;2023-04-23T02:24:35;97668.09;;;14.46;87.36
21824;BME280;11074;48.596;9.238;2023-04-23T02:27:03;97674.56;;;14.45;87.25
21824;BME280;11074;48.596;9.238;2023-04-23T02:29:29;97670.78;;;14.46;87.68
21824;BME280;11074;48.596;9.238;2023-04-23T02:31:55;97665.69;;;14.44;87.45
21824;BME280;11074;48.596;9.238;2023-04-23T02:34:21;97660.31;;;14.44;88.60
21824;BME280;11074;48.596;9.238;2023-04-23T02:36:46;97663.34;;;14.38;89.51
21824;BME280;11074;48.596;9.238;2023-04-23T02:39:12;97664.50;;;14.32;89.87
21824;BME280;11074;48.596;9.238;2023-04-23T02:41:37;97670.09;;;14.35;89.90
21824;BME280;11074;48.596;9.238;2023-04-23T02:44:03;97673.91;;;14.34;90.36
21824;BME280;11074;48.596;9.238;2023-04-23T02:46:29;97673.34;;;14.32;90.52
21824;BME280;11074;48.596;9.238;2023-04-23T02:48:56;97666.94;;;14.28;90.26
21824;BME280;11074;48.596;9.238;2023-04-23T02:51:22;97671.00;;;14.26;90.56
21824;BME280;11074;48.596;9.238;2023-04-23T02:53:47;97674.50;;;14.26;91.08
21824;BME280;11074;48.596;9.238;2023-04-23T02:56:13;97679.06;;;14.26;90.52
21824;BME280;11074;48.596;9.238;2023-04-23T02:58:39;97675.56;;;14.25;91.33
21824;BME280;11074;48.596;9.238;2023-04-23T03:01:05;97674.03;;;14.19;91.58
21824;BME280;11074;48.596;9.238;2023-04-23T03:03:32;97672.78;;;14.12;92.19
21824;BME280;11074;48.596;9.238;2023-04-23T03:06:00;97669.91;;;14.03;93.13
21824;BME280;11074;48.596;9.238;2023-04-23T03:08:26;97654.91;;;14.02;93.78
21824;BME280;11074;48.596;9.238;2023-04-23T03:10:52;97659.72;;;14.00;93.93
21824;BME280;11074;48.596;9.238;2023-04-23T03:13:18;97676.41;;;14.02;93.71
21824;BME280;11074;48.596;9.238;2023-04-23T03:15:43;97673.66;;;14.07;93.71
21824;BME280;11074;48.596;9.238;2023-04-23T03:18:09;97656.97;;;14.05;93.91
21824;BME280;11074;48.596;9.238;2023-04-23T03:20:35;97656.59;;;13.93;94.00
21824;BME280;11074;48.596;9.238;2023-04-23T03:23:02;97652.91;;;13.89;94.68
21824;BME280;11074;48.596;9.238;2023-04-23T03:25:31;97669.97;;;13.98;94.89
21824;BME280;11074;48.596;9.238;2023-04-23T03:27:57;97679.28;;;14.06;94.33
21824;BME280;11074;48.596;9.238;2023-04-23T03:30:24;97672.53;;;14.08;94.34
21824;BME280;11074;48.596;9.238;2023-04-23T03:32:49;97666.38;;;14.08;94.71
21824;BME280;11074;48.596;9.238;2023-04-23T03:35:15;97662.91;;;14.07;94.43
21824;BME280;11074;48.596;9.238;2023-04-23T03:37:41;97663.69;;;14.08;94.21
21824;BME280;11074;48.596;9.238;2023-04-23T03:40:08;97665.84;;;14.06;94.41
21824;BME280;11074;48.596;9.238;2023-04-23T03:42:34;97658.16;;;13.99;94.87
21824;BME280;11074;48.596;9.238;2023-04-23T03:45:00;97648.97;;;14.00;94.86
21824;BME280;11074;48.596;9.238;2023-04-23T03:47:26;97657.59;;;14.02;94.23
21824;BME280;11074;48.596;9.238;2023-04-23T03:49:53;97658.59;;;14.06;94.21
21824;BME280;11074;48.596;9.238;2023-04-23T03:52:19;97657.53;;;14.07;93.73
21824;BME280;11074;48.596;9.238;2023-04-23T03:54:44;97656.41;;;14.08;93.20
21824;BME280;11074;48.596;9.238;2023-04-23T03:57:10;97665.59;;;14.07;93.69
21824;BME280;11074;48.596;9.238;2023-04-23T03:59:39;97666.16;;;14.04;92.92
21824;BME280;11074;48.596;9.238;2023-04-23T04:02:04;97667.22;;;14.03;92.78
21824;BME280;11074;48.596;9.238;2023-04-23T04:04:31;97670.47;;;14.00;93.49
21824;BME280;11074;48.596;9.238;2023-04-23T04:06:59;97669.72;;;13.94;94.49
21824;BME280;11074;48.596;9.238;2023-04-23T04:09:28;97671.09;;;13.92;93.96
21824;BME280;11074;48.596;9.238;2023-04-23T04:11:54;97671.22;;;13.82;94.91
21824;BME280;11074;48.596;9.238;2023-04-23T04:14:21;97671.00;;;13.78;94.81
21824;BME280;11074;48.596;9.238;2023-04-23T04:16:47;97680.38;;;13.81;94.67
21824;BME280;11074;48.596;9.238;2023-04-23T04:19:13;97671.72;;;13.84;94.58
21824;BME280;11074;48.596;9.238;2023-04-23T04:21:39;97677.91;;;13.84;94.05
21824;BME280;11074;48.596;9.238;2023-04-23T04:24:05;97674.41;;;13.84;94.53
21824;BME280;11074;48.596;9.238;2023-04-23T04:26:31;97669.34;;;13.82;94.59
21824;BME280;11074;48.596;9.238;2023-04-23T04:28:58;97675.53;;;13.83;94.21
21824;BME280;11074;48.596;9.238;2023-04-23T04:31:25;97672.88;;;13.78;95.54
21824;BME280;11074;48.596;9.238;2023-04-23T04:33:53;97672.47;;;13.66;95.45
21824;BME280;11074;48.596;9.238;2023-04-23T04:36:20;97673.56;;;13.65;95.69
21824;BME280;11074;48.596;9.238;2023-04-23T04:38:46;97670.94;;;13.55;96.22
21824;BME280;11074;48.596;9.238;2023-04-23T04:41:12;97678.22;;;13.54;96.62
21824;BME280;11074;48.596;9.238;2023-04-23T04:43:39;97680.63;;;13.56;96.20
21824;BME280;11074;48.596;9.238;2023-04-23T04:46:05;97669.06;;;13.55;95.92
21824;BME280;11074;48.596;9.238;2023-04-23T04:48:31;97669.38;;;13.54;96.42
21824;BME280;11074;48.596;9.238;2023-04-23T04:50:57;97664.25;;;13.52;96.29
21824;BME280;11074;48.596;9.238;2023-04-23T04:53:23;97662.88;;;13.55;96.58
21824;BME280;11074;48.596;9.238;2023-04-23T04:55:49;97673.88;;;13.58;96.47
21824;BME280;11074;48.596;9.238;2023-04-23T04:58:14;97667.69;;;13.58;96.35
21824;BME280;11074;48.596;9.238;2023-04-23T05:00:40;97677.69;;;13.52;97.15
21824;BME280;11074;48.596;9.238;2023-04-23T05:03:06;97683.00;;;13.57;96.74
21824;BME280;11074;48.596;9.238;2023-04-23T05:05:32;97678.50;;;13.53;96.77
21824;BME280;11074;48.596;9.238;2023-04-23T05:08:01;97680.91;;;13.54;96.37
21824;BME280;11074;48.596;9.238;2023-04-23T05:10:28;97675.00;;;13.52;96.76
21824;BME280;11074;48.596;9.238;2023-04-23T05:12:56;97681.22;;;13.48;96.67
21824;BME280;11074;48.596;9.238;2023-04-23T05:15:22;97673.13;;;13.53;96.87
21824;BME280;11074;48.596;9.238;2023-04-23T05:17:50;97673.63;;;13.55;96.91
21824;BME280;11074;48.596;9.238;2023-04-23T05:20:17;97674.94;;;13.57;96.51
21824;BME280;11074;48.596;9.238;2023-04-23T05:22:45;97682.75;;;13.59;96.36
21824;BME280;11074;48.596;9.238;2023-04-23T05:25:12;97679.50;;;13.62;96.30
21824;BME280;11074;48.596;9.238;2023-04-23T05:27:41;97681.69;;;13.55;96.34
21824;BME280;11074;48.596;9.238;2023-04-23T05:30:09;97692.69;;;13.58;96.50
21824;BME280;11074;48.596;9.238;2023-04-23T05:32:36;97690.28;;;13.57;96.98
21824;BME280;11074;48.596;9.238;2023-04-23T05:35:02;97686.28;;;13.54;96.34
21824;BME280;11074;48.596;9.238;2023-04-23T05:37:29;97686.28;;;13.54;96.70
21824;BME280;11074;48.596;9.238;2023-04-23T05:39:55;97679.31;;;13.53;96.44
21824;BME280;11074;48.596;9.238;2023-04-23T05:42:22;97679.00;;;13.55;96.99
21824;BME280;11074;48.596;9.238;2023-04-23T05:44:48;97666.69;;;13.54;96.96
21824;BME280;11074;48.596;9.238;2023-04-23T05:47:14;97666.91;;;13.57;96.82
21824;BME280;11074;48.596;9.238;2023-04-23T05:49:40;97674.50;;;13.50;96.77
21824;BME280;11074;48.596;9.238;2023-04-23T05:52:06;97669.63;;;13.52;96.61
21824;BME280;11074;48.596;9.238;2023-04-23T05:54:32;97658.56;;;13.59;97.29
21824;BME280;11074;48.596;9.238;2023-04-23T05:56:57;97654.81;;;13.60;97.10
21824;BME280;11074;48.596;9.238;2023-04-23T05:59:23;97648.84;;;13.63;97.11
21824;BME280;11074;48.596;9.238;2023-04-23T06:01:49;97667.31;;;13.69;96.76
21824;BME280;11074;48.596;9.238;2023-04-23T06:04:15;97676.41;;;13.73;96.55
21824;BME280;11074;48.596;9.238;2023-04-23T06:06:44;97680.47;;;13.71;96.16
21824;BME280;11074;48.596;9.238;2023-04-23T06:09:10;97674.06;;;13.67;95.78
21824;BME280;11074;48.596;9.238;2023-04-23T06:11:36;97678.06;;;13.69;95.48
21824;BME280;11074;48.596;9.238;2023-04-23T06:14:03;97677.22;;;13.74;94.96
21824;BME280;11074;48.596;9.238;2023-04-23T06:16:29;97681.47;;;13.80;94.09
21824;BME280;11074;48.596;9.238;2023-04-23T06:18:55;97683.28;;;13.84;93.85
21824;BME280;11074;48.596;9.238;2023-04-23T06:21:22;97680.78;;;13.93;93.59
21824;BME280;11074;48.596;9.238;2023-04-23T06:23:48;97681.28;;;13.95;93.32
21824;BME280;11074;48.596;9.238;2023-04-23T06:26:14;97678.78;;;14.04;92.93
21824;BME280;11074;48.596;9.238;2023-04-23T06:28:45;97675.41;;;14.17;92.50
21824;BME280;11074;48.596;9.238;2023-04-23T06:31:12;97683.59;;;14.30;93.29
21824;BME280;11074;48.596;9.238;2023-04-23T06:33:38;97677.59;;;14.38;91.38
21824;BME280;11074;48.596;9.238;2023-04-23T06:36:04;97681.28;;;14.42;91.11
21824;BME280;11074;48.596;9.238;2023-04-23T06:38:30;97673.75;;;14.44;89.88
21824;BME280;11074;48.596;9.238;2023-04-23T06:40:56;97669.69;;;14.47;89.37
21824;BME280;11074;48.596;9.238;2023-04-23T06:43:22;97663.75;;;14.50;89.04
21824;BME280;11074;48.596;9.238;2023-04-23T06:45:51;97666.13;;;14.51;89.25
21824;BME280;11074;48.596;9.238;2023-04-23T06:48:17;97664.25;;;14.52;87.37
21824;BME280;11074;48.596;9.238;2023-04-23T06:50:43;97670.94;;;14.54;87.16
21824;BME280;11074;48.596;9.238;2023-04-23T06:53:09;97666.63;;;14.53;86.90
21824;BME280;11074;48.596;9.238;2023-04-23T06:55:35;97664.59;;;14.64;86.17
21824;BME280;11074;48.596;9.238;2023-04-23T06:58:00;97659.44;;;14.68;86.11
21824;BME280;11074;48.596;9.238;2023-04-23T07:00:26;97661.06;;;14.69;86.25
21824;BME280;11074;48.596;9.238;2023-04-23T07:02:52;97657.56;;;14.68;85.38
21824;BME280;11074;48.596;9.238;2023-04-23T07:05:18;97654.06;;;14.68;85.58
21824;BME280;11074;48.596;9.238;2023-04-23T07:07:44;97639.00;;;14.67;85.07
21824;BME280;11074;48.596;9.238;2023-04-23T07:10:11;97646.31;;;14.66;84.85
21824;BME280;11074;48.596;9.238;2023-04-23T07:12:38;97640.69;;;14.63;85.32
21824;BME280;11074;48.596;9.238;2023-04-23T07:15:05;97635.25;;;14.68;84.85
21824;BME280;11074;48.596;9.238;2023-04-23T07:17:31;97642.72;;;14.71;84.21
21824;BME280;11074;48.596;9.238;2023-04-23T07:19:57;97638.06;;;14.76;84.74
21824;BME280;11074;48.596;9.238;2023-04-23T07:22:24;97645.56;;;14.79;85.03
21824;BME280;11074;48.596;9.238;2023-04-23T07:24:53;97636.38;;;14.80;83.93
21824;BME280;11074;48.596;9.238;2023-04-23T07:27:19;97636.91;;;14.82;83.67
21824;BME280;11074;48.596;9.238;2023-04-23T07:29:45;97633.84;;;14.89;83.03
21824;BME280;11074;48.596;9.238;2023-04-23T07:32:10;97632.69;;;14.95;82.72
21824;BME280;11074;48.596;9.238;2023-04-23T07:34:37;97628.22;;;15.04;82.23
21824;BME280;11074;48.596;9.238;2023-04-23T07:37:03;97635.13;;;15.10;81.49
21824;BME280;11074;48.596;9.238;2023-04-23T07:39:28;97628.34;;;15.12;80.44
21824;BME280;11074;48.596;9.238;2023-04-23T07:41:54;97630.97;;;15.17;78.08
21824;BME280;11074;48.596;9.238;2023-04-23T07:44:21;97625.47;;;15.23;78.18
21824;BME280;11074;48.596;9.238;2023-04-23T07:46:47;97625.22;;;15.24;75.86
21824;BME280;11074;48.596;9.238;2023-04-23T07:49:12;97623.59;;;15.23;76.30
21824;BME280;11074;48.596;9.238;2023-04-23T07:51:38;97619.22;;;15.27;76.72
21824;BME280;11074;48.596;9.238;2023-04-23T07:54:04;97615.97;;;15.30;76.33
21824;BME280;11074;48.596;9.238;2023-04-23T07:56:30;97614.94;;;15.26;76.60
21824;BME280;11074;48.596;9.238;2023-04-23T07:58:58;97611.06;;;15.32;76.06
21824;BME280;11074;48.596;9.238;2023-04-23T08:01:23;97617.53;;;15.31;75.52
21824;BME280;11074;48.596;9.238;2023-04-23T08:03:49;97617.25;;;15.33;75.09
21824;BME280;11074;48.596;9.238;2023-04-23T08:06:15;97616.38;;;15.37;74.36
21824;BME280;11074;48.596;9.238;2023-04-23T08:08:42;97618.66;;;15.44;74.63
21824;BME280;11074;48.596;9.238;2023-04-23T08:11:08;97613.31;;;15.57;74.16
21824;BME280;11074;48.596;9.238;2023-04-23T08:13:34;97614.25;;;15.66;74.25
21824;BME280;11074;48.596;9.238;2023-04-23T08:16:00;97614.16;;;15.71;73.19
21824;BME280;11074;48.596;9.238;2023-04-23T08:18:26;97612.66;;;15.79;73.39
21824;BME280;11074;48.596;9.238;2023-04-23T08:20:54;97610.97;;;15.97;72.11
21824;BME280;11074;48.596;9.238;2023-04-23T08:23:20;97616.44;;;16.05;71.98
21824;BME280;11074;48.596;9.238;2023-04-23T08:25:46;97611.47;;;16.12;71.48
21824;BME280;11074;48.596;9.238;2023-04-23T08:28:13;97601.44;;;16.26;71.32
21824;BME280;11074;48.596;9.238;2023-04-23T08:30:38;97590.84;;;16.30;71.28
21824;BME280;11074;48.596;9.238;2023-04-23T08:33:04;97583.44;;;16.35;70.22
21824;BME280;11074;48.596;9.238;2023-04-23T08:35:30;97586.84;;;16.41;69.80
21824;BME280;11074;48.596;9.238;2023-04-23T08:37:55;97580.31;;;16.42;69.48
21824;BME280;11074;48.596;9.238;2023-04-23T08:40:21;97590.63;;;16.40;69.67
21824;BME280;11074;48.596;9.238;2023-04-23T08:43:01;97598.34;;;16.33;69.50
21824;BME280;11074;48.596;9.238;2023-04-23T08:45:29;97600.72;;;16.34;69.48
21824;BME280;11074;48.596;9.238;2023-04-23T08:47:59;97584.13;;;16.41;69.60
21824;BME280;11074;48.596;9.238;2023-04-23T08:50:28;97582.81;;;16.52;69.33
21824;BME280;11074;48.596;9.238;2023-04-23T08:52:56;97585.09;;;16.59;68.47
21824;BME280;11074;48.596;9.238;2023-04-23T08:55:23;97574.72;;;16.66;68.73
21824;BME280;11074;48.596;9.238;2023-04-23T08:57:50;97574.88;;;16.69;68.04
21824;BME280;11074;48.596;9.238;2023-04-23T09:00:18;97575.75;;;16.78;68.37
21824;BME280;11074;48.596;9.238;2023-04-23T09:02:47;97579.06;;;16.75;67.63
21824;BME280;11074;48.596;9.238;2023-04-23T09:05:14;97568.63;;;16.82;67.87
21824;BME280;11074;48.596;9.238;2023-04-23T09:07:41;97574.22;;;16.86;68.13
21824;BME280;11074;48.596;9.238;2023-04-23T09:10:10;97571.38;;;16.91;67.98
21824;BME280;11074;48.596;9.238;2023-04-23T09:12:39;97574.16;;;17.00;67.54
21824;BME280;11074;48.596;9.238;2023-04-23T09:15:07;97562.13;;;17.06;66.81
21824;BME280;11074;48.596;9.238;2023-04-23T09:17:46;97564.56;;;17.16;66.09
21824;BME280;11074;48.596;9.238;2023-04-23T09:20:13;97555.22;;;17.22;65.62
21824;BME280;11074;48.596;9.238;2023-04-23T09:22:48;97547.28;;;17.25;65.31
21824;BME280;11074;48.596;9.238;2023-04-23T09:25:17;97542.34;;;17.19;63.88
21824;BME280;11074;48.596;9.238;2023-04-23T09:27:45;97533.13;;;17.20;65.71
21824;BME280;11074;48.596;9.238;2023-04-23T09:30:12;97519.59;;;17.20;65.46
21824;BME280;11074;48.596;9.238;2023-04-23T09:32:40;97517.72;;;17.20;63.27
21824;BME280;11074;48.596;9.238;2023-04-23T09:35:10;97526.16;;;17.27;64.49
21824;BME280;11074;48.596;9.238;2023-04-23T09:37:40;97523.63;;;17.31;63.30
21824;BME280;11074;48.596;9.238;2023-04-23T09:40:06;97519.50;;;17.33;62.33
21824;BME280;11074;48.596;9.238;2023-04-23T09:42:36;97516.00;;;17.33;61.43
21824;BME280;11074;48.596;9.238;2023-04-23T09:45:11;97527.19;;;17.40;60.91
21824;BME280;11074;48.596;9.238;2023-04-23T09:47:51;97528.94;;;17.44;59.97
21824;BME280;11074;48.596;9.238;2023-04-23T09:50:31;97532.19;;;17.55;59.15
21824;BME280;11074;48.596;9.238;2023-04-23T09:52:57;97515.25;;;17.72;58.65
21824;BME280;11074;48.596;9.238;2023-04-23T09:55:34;97515.75;;;17.82;57.91
21824;BME280;11074;48.596;9.238;2023-04-23T09:58:03;97520.06;;;17.92;58.60
21824;BME280;11074;48.596;9.238;2023-04-23T10:00:35;97502.41;;;17.94;59.04
21824;BME280;11074;48.596;9.238;2023-04-23T10:03:02;97506.38;;;17.97;56.30
21824;BME280;11074;48.596;9.238;2023-04-23T10:05:28;97510.38;;;17.99;56.87
21824;BME280;11074;48.596;9.238;2023-04-23T10:07:55;97503.88;;;18.09;55.96
21824;BME280;11074;48.596;9.238;2023-04-23T10:10:24;97491.13;;;18.18;56.48
21824;BME280;11074;48.596;9.238;2023-04-23T10:12:52;97478.72;;;18.26;56.57
21824;BME280;11074;48.596;9.238;2023-04-23T10:15:19;97474.91;;;18.35;56.57
21824;BME280;11074;48.596;9.238;2023-04-23T10:17:46;97474.28;;;18.38;56.98
21824;BME280;11074;48.596;9.238;2023-04-23T10:20:15;97468.88;;;18.38;55.84
21824;BME280;11074;48.596;9.238;2023-04-23T10:22:43;97471.72;;;18.42;55.90
21824;BME280;11074;48.596;9.238;2023-04-23T10:25:11;97467.09;;;18.34;54.88
21824;BME280;11074;48.596;9.238;2023-04-23T10:27:41;97468.69;;;18.35;55.43
21824;BME280;11074;48.596;9.238;2023-04-23T10:30:10;97463.00;;;18.36;55.86
21824;BME280;11074;48.596;9.238;2023-04-23T10:32:37;97458.84;;;18.39;56.57
21824;BME280;11074;48.596;9.238;2023-04-23T10:35:07;97461.25;;;18.49;56.11
21824;BME280;11074;48.596;9.238;2023-04-23T10:37:35;97452.00;;;18.58;56.00
21824;BME280;11074;48.596;9.238;2023-04-23T10:40:12;97452.97;;;18.62;55.84
21824;BME280;11074;48.596;9.238;2023-04-23T10:42:45;97440.03;;;18.68;56.00
21824;BME280;11074;48.596;9.238;2023-04-23T10:45:20;97434.63;;;18.68;56.35
21824;BME280;11074;48.596;9.238;2023-04-23T10:47:47;97432.38;;;18.79;56.34
21824;BME280;11074;48.596;9.238;2023-04-23T10:50:24;97427.88;;;18.91;56.54
21824;BME280;11074;48.596;9.238;2023-04-23T10:52:51;97421.63;;;18.99;56.28
21824;BME280;11074;48.596;9.238;2023-04-23T10:55:23;97422.38;;;19.08;55.91
21824;BME280;11074;48.596;9.238;2023-04-23T10:58:04;97418.72;;;19.04;55.13
21824;BME280;11074;48.596;9.238;2023-04-23T11:03:46;97417.22;;;18.86;56.75
21824;BME280;11074;48.596;9.238;2023-04-23T11:06:18;97410.31;;;18.97;56.64
21824;BME280;11074;48.596;9.238;2023-04-23T11:08:51;97415.56;;;19.02;56.02
21824;BME280;11074;48.596;9.238;2023-04-23T11:11:38;97410.88;;;19.11;54.60
21824;BME280;11074;48.596;9.238;2023-04-23T11:14:11;97406.00;;;19.05;55.16
21824;BME280;11074;48.596;9.238;2023-04-23T11:16:40;97407.88;;;19.13;55.01
21824;BME280;11074;48.596;9.238;2023-04-23T11:19:10;97411.31;;;19.22;55.20
21824;BME280;11074;48.596;9.238;2023-04-23T11:22:14;97394.38;;;19.33;54.66
21824;BME280;11074;48.596;9.238;2023-04-23T11:24:43;97399.28;;;19.40;54.00
21824;BME280;11074;48.596;9.238;2023-04-23T11:27:12;97389.41;;;19.44;53.72
21824;BME280;11074;48.596;9.238;2023-04-23T11:29:41;97380.81;;;19.42;52.79
21824;BME280;11074;48.596;9.238;2023-04-23T11:32:09;97378.09;;;19.33;53.06
21824;BME280;11074;48.596;9.238;2023-04-23T11:34:40;97382.06;;;19.45;52.80
21824;BME280;11074;48.596;9.238;2023-04-23T11:37:13;97384.25;;;19.51;53.25
21824;BME280;11074;48.596;9.238;2023-04-23T11:39:43;97379.16;;;19.70;54.43
21824;BME280;11074;48.596;9.238;2023-04-23T11:42:14;97379.72;;;19.84;53.66
21824;BME280;11074;48.596;9.238;2023-04-23T11:44:44;97379.81;;;19.88;52.98
21824;BME280;11074;48.596;9.238;2023-04-23T11:47:14;97371.22;;;20.07;53.57
21824;BME280;11074;48.596;9.238;2023-04-23T11:49:43;97359.25;;;20.08;52.01
21824;BME280;11074;48.596;9.238;2023-04-23T11:52:10;97353.22;;;20.02;52.30
21824;BME280;11074;48.596;9.238;2023-04-23T11:54:39;97350.44;;;20.11;52.40
21824;BME280;11074;48.596;9.238;2023-04-23T11:57:05;97353.28;;;20.14;52.33
21824;BME280;11074;48.596;9.238;2023-04-23T11:59:31;97345.25;;;20.18;51.24
21824;BME280;11074;48.596;9.238;2023-04-23T12:01:58;97335.94;;;20.27;51.57
21824;BME280;11074;48.596;9.238;2023-04-23T12:04:30;97326.03;;;20.23;51.01
21824;BME280;11074;48.596;9.238;2023-04-23T12:06:57;97323.53;;;20.38;52.41
21824;BME280;11074;48.596;9.238;2023-04-23T12:09:27;97334.56;;;20.66;51.81
21824;BME280;11074;48.596;9.238;2023-04-23T12:11:55;97327.78;;;20.96;50.79
21824;BME280;11074;48.596;9.238;2023-04-23T12:14:27;97315.69;;;21.18;49.60
21824;BME280;11074;48.596;9.238;2023-04-23T12:16:53;97310.59;;;21.29;48.64
21824;BME280;11074;48.596;9.238;2023-04-23T12:19:26;97311.00;;;21.55;47.59
21824;BME280;11074;48.596;9.238;2023-04-23T12:21:55;97302.41;;;21.81;47.68
21824;BME280;11074;48.596;9.238;2023-04-23T12:24:26;97300.53;;;22.09;47.50
21824;BME280;11074;48.596;9.238;2023-04-23T12:26:56;97297.63;;;22.17;46.53
21824;BME280;11074;48.596;9.238;2023-04-23T12:29:24;97285.72;;;22.53;46.24
21824;BME280;11074;48.596;9.238;2023-04-23T12:31:52;97283.44;;;22.40;45.77
21824;BME280;11074;48.596;9.238;2023-04-23T12:34:21;97278.66;;;22.21;46.62
21824;BME280;11074;48.596;9.238;2023-04-23T12:36:53;97269.78;;;22.24;45.56
21824;BME280;11074;48.596;9.238;2023-04-23T12:39:26;97268.59;;;22.37;44.98
21824;BME280;11074;48.596;9.238;2023-04-23T12:42:00;97263.13;;;22.53;45.15
21824;BME280;11074;48.596;9.238;2023-04-23T12:44:28;97258.34;;;22.77;45.20
21824;BME280;11074;48.596;9.238;2023-04-23T12:47:08;97255.06;;;22.87;44.53
21824;BME280;11074;48.596;9.238;2023-04-23T12:49:39;97254.66;;;22.70;45.53
21824;BME280;11074;48.596;9.238;2023-04-23T12:52:06;97252.78;;;22.43;45.40
21824;BME280;11074;48.596;9.238;2023-04-23T12:54:34;97252.28;;;22.09;45.84
21824;BME280;11074;48.596;9.238;2023-04-23T12:57:10;97261.84;;;21.75;46.15
21824;BME280;11074;48.596;9.238;2023-04-23T12:59:36;97255.28;;;21.64;45.23
21824;BME280;11074;48.596;9.238;2023-04-23T13:02:03;97253.13;;;21.70;46.78
21824;BME280;11074;48.596;9.238;2023-04-23T13:04:31;97243.56;;;22.04;46.76
21824;BME280;11074;48.596;9.238;2023-04-23T13:06:57;97235.63;;;22.26;45.13